createdAt,value
2023-02-28T00:00:11.103Z,103113.56
2023-02-28T00:02:57.815Z,103113.84
2023-02-28T00:05:44.260Z,103101.00
2023-02-28T00:08:30.759Z,103098.91
2023-02-28T00:11:18.289Z,103101.78
2023-02-28T00:14:04.695Z,103092.50
2023-02-28T00:16:52.224Z,103101.56
2023-02-28T00:19:38.600Z,103109.09
2023-02-28T00:22:25.008Z,103105.97
2023-02-28T00:25:13.792Z,103112.16
2023-02-28T00:28:00.246Z,103109.63
2023-02-28T00:30:47.015Z,103109.53
2023-02-28T00:33:35.232Z,103111.94
2023-02-28T00:36:21.536Z,103109.53
2023-02-28T00:39:07.943Z,103107.69
2023-02-28T00:41:54.575Z,103105.13
2023-02-28T00:44:41.158Z,103103.50
2023-02-28T00:47:27.325Z,103106.78
2023-02-28T00:50:15.288Z,103104.38
2023-02-28T00:53:01.519Z,103105.38
2023-02-28T00:55:47.706Z,103100.56
2023-02-28T00:58:34.295Z,103095.25
2023-02-28T01:01:20.901Z,103097.38
2023-02-28T01:04:07.853Z,103097.13
2023-02-28T01:06:57.028Z,103097.72
2023-02-28T01:09:43.163Z,103091.44
2023-02-28T01:12:31.003Z,103101.22
2023-02-28T01:15:17.615Z,103108.09
2023-02-28T01:18:05.242Z,103114.19
2023-02-28T01:20:52.715Z,103109.88
2023-02-28T01:23:40.752Z,103113.25
2023-02-28T01:26:27.094Z,103112.16
2023-02-28T01:29:13.418Z,103100.78
2023-02-28T01:32:00.507Z,103095.78
2023-02-28T01:34:47.017Z,103089.81
2023-02-28T01:37:33.348Z,103082.28
2023-02-28T01:40:21.586Z,103068.47
2023-02-28T01:43:21.005Z,103063.84
2023-02-28T01:46:07.299Z,103061.22
2023-02-28T01:48:59.062Z,103059.97
2023-02-28T01:51:51.736Z,103051.69
2023-02-28T01:54:38.645Z,103056.50
2023-02-28T01:57:34.562Z,103048.34
2023-02-28T02:00:25.288Z,103059.91
2023-02-28T02:03:17.242Z,103054.69
2023-02-28T02:06:04.136Z,103057.47
2023-02-28T02:08:50.788Z,103065.75
2023-02-28T02:11:38.080Z,103063.91
2023-02-28T02:14:39.972Z,103053.78
2023-02-28T02:17:33.064Z,103051.03
2023-02-28T02:20:48.547Z,103054.72
2023-02-28T02:24:19.963Z,103055.09
2023-02-28T02:27:19.082Z,103052.56
2023-02-28T02:30:45.446Z,103046.63
2023-02-28T02:34:04.183Z,103059.81
2023-02-28T02:36:55.628Z,103062.34
2023-02-28T02:39:51.059Z,103062.25
2023-02-28T02:42:44.113Z,103066.06
2023-02-28T02:45:36.784Z,103073.91
2023-02-28T02:48:27.381Z,103075.34
2023-02-28T02:51:15.691Z,103076.47
2023-02-28T02:54:10.195Z,103071.91
2023-02-28T02:56:59.692Z,103068.81
2023-02-28T02:59:46.659Z,103071.94
2023-02-28T03:02:35.199Z,103066.69
2023-02-28T03:05:26.821Z,103070.06
2023-02-28T03:08:13.331Z,103078.41
2023-02-28T03:11:02.944Z,103079.91
2023-02-28T03:14:18.499Z,103074.75
2023-02-28T03:17:32.920Z,103071.44
2023-02-28T03:20:34.471Z,103067.50
2023-02-28T03:23:26.073Z,103066.97
2023-02-28T03:26:21.390Z,103067.34
2023-02-28T03:29:18.125Z,103068.06
2023-02-28T03:32:15.387Z,103072.56
2023-02-28T03:35:08.414Z,103073.19
2023-02-28T03:38:01.984Z,103080.81
2023-02-28T03:40:53.132Z,103076.09
2023-02-28T03:43:45.385Z,103069.44
2023-02-28T03:46:38.243Z,103078.22
2023-02-28T03:49:29.058Z,103080.88
2023-02-28T03:52:16.776Z,103076.31
2023-02-28T03:55:10.110Z,103081.22
2023-02-28T03:58:02.880Z,103076.88
2023-02-28T04:00:57.268Z,103074.25
2023-02-28T04:03:43.773Z,103078.94
2023-02-28T04:06:33.508Z,103074.38
2023-02-28T04:09:19.638Z,103079.38
2023-02-28T04:12:06.465Z,103088.34
2023-02-28T04:14:53.011Z,103082.78
2023-02-28T04:17:40.522Z,103088.22
2023-02-28T04:20:26.622Z,103091.88
2023-02-28T04:23:12.746Z,103084.69
2023-02-28T04:25:59.243Z,103090.94
2023-02-28T04:28:45.632Z,103089.50
2023-02-28T04:31:32.361Z,103096.97
2023-02-28T04:34:20.862Z,103097.28
2023-02-28T04:37:13.667Z,103095.91
2023-02-28T04:40:00.845Z,103101.84
2023-02-28T04:42:47.439Z,103100.53
2023-02-28T04:45:34.788Z,103101.00
2023-02-28T04:48:22.399Z,103108.13
2023-02-28T04:51:11.623Z,103109.84
2023-02-28T04:53:59.024Z,103101.75
2023-02-28T04:56:45.182Z,103112.50
2023-02-28T04:59:31.623Z,103117.63
2023-02-28T05:02:18.115Z,103124.84
2023-02-28T05:05:04.772Z,103123.91
2023-02-28T05:07:52.316Z,103112.03
2023-02-28T05:10:38.856Z,103120.84
2023-02-28T05:13:25.093Z,103115.06
2023-02-28T05:16:11.593Z,103120.16
2023-02-28T05:18:57.972Z,103108.41
2023-02-28T05:21:53.174Z,103107.69
2023-02-28T05:24:40.581Z,103105.47
2023-02-28T05:27:26.882Z,103102.44
2023-02-28T05:30:13.803Z,103102.09
2023-02-28T05:33:00.646Z,103104.53
2023-02-28T05:35:47.194Z,103098.56
2023-02-28T05:38:33.682Z,103108.81
2023-02-28T05:41:22.150Z,103105.81
2023-02-28T05:44:08.436Z,103110.44
2023-02-28T05:46:54.925Z,103100.56
2023-02-28T05:49:41.452Z,103100.56
2023-02-28T05:52:27.943Z,103104.41
2023-02-28T05:55:14.291Z,103108.16
2023-02-28T05:58:01.789Z,103105.31
2023-02-28T06:00:48.178Z,103101.91
2023-02-28T06:03:34.512Z,103095.88
2023-02-28T06:06:20.814Z,103100.75
2023-02-28T06:09:07.237Z,103098.22
2023-02-28T06:11:55.036Z,103093.53
2023-02-28T06:14:42.746Z,103090.88
2023-02-28T06:17:29.306Z,103086.13
2023-02-28T06:20:15.372Z,103074.66
2023-02-28T06:23:01.607Z,103084.56
2023-02-28T06:25:48.768Z,103075.59
2023-02-28T06:28:35.053Z,103089.31
2023-02-28T06:31:23.168Z,103081.72
2023-02-28T06:34:09.547Z,103084.31
2023-02-28T06:36:56.023Z,103089.84
2023-02-28T06:39:42.449Z,103085.06
2023-02-28T06:42:29.650Z,103075.56
2023-02-28T06:45:16.367Z,103067.72
2023-02-28T06:48:04.413Z,103077.28
2023-02-28T06:50:50.816Z,103074.84
2023-02-28T06:53:37.982Z,103073.97
2023-02-28T06:56:24.376Z,103085.66
2023-02-28T06:59:11.032Z,103095.91
2023-02-28T07:01:57.771Z,103080.34
2023-02-28T07:04:45.753Z,103080.28
2023-02-28T07:07:33.202Z,103077.69
2023-02-28T07:10:20.420Z,103080.78
2023-02-28T07:13:08.831Z,103087.72
2023-02-28T07:15:56.529Z,103085.94
2023-02-28T07:18:42.851Z,103084.75
2023-02-28T07:21:31.142Z,103092.09
2023-02-28T07:24:18.953Z,103100.25
2023-02-28T07:27:05.279Z,103095.69
2023-02-28T07:29:51.747Z,103092.03
2023-02-28T07:32:38.827Z,103092.84
2023-02-28T07:35:25.535Z,103089.50
2023-02-28T07:38:14.590Z,103090.94
2023-02-28T07:41:00.656Z,103098.81
2023-02-28T07:43:47.559Z,103093.28
2023-02-28T07:46:36.620Z,103095.50
2023-02-28T07:49:23.657Z,103098.81
2023-02-28T07:52:12.232Z,103087.09
2023-02-28T07:55:00.292Z,103102.03
2023-02-28T07:57:46.840Z,103100.53
2023-02-28T08:00:33.662Z,103106.28
2023-02-28T08:03:21.966Z,103105.13
2023-02-28T08:06:18.029Z,103108.19
2023-02-28T08:09:04.877Z,103105.03
2023-02-28T08:11:52.724Z,103108.75
2023-02-28T08:14:40.579Z,103114.91
2023-02-28T08:17:26.952Z,103118.13
2023-02-28T08:20:14.297Z,103107.25
2023-02-28T08:23:00.645Z,103122.41
2023-02-28T08:25:46.984Z,103121.09
2023-02-28T08:28:35.271Z,103118.94
2023-02-28T08:31:21.837Z,103117.56
2023-02-28T08:34:08.668Z,103127.00
2023-02-28T08:36:55.289Z,103123.72
2023-02-28T08:39:41.707Z,103131.09
2023-02-28T08:42:27.904Z,103130.94
2023-02-28T08:45:16.772Z,103134.56
2023-02-28T08:48:03.456Z,103127.84
2023-02-28T08:51:06.730Z,103132.06
2023-02-28T08:53:54.842Z,103131.41
2023-02-28T08:56:41.293Z,103137.16
2023-02-28T08:59:27.676Z,103144.56
2023-02-28T09:02:16.579Z,103156.94
2023-02-28T09:05:04.044Z,103149.25
2023-02-28T09:07:51.528Z,103155.38
2023-02-28T09:10:37.748Z,103150.84
2023-02-28T09:13:24.472Z,103153.00
2023-02-28T09:16:13.447Z,103160.66
2023-02-28T09:19:01.174Z,103173.06
2023-02-28T09:21:47.537Z,103180.03
2023-02-28T09:24:33.998Z,103174.00
2023-02-28T09:27:20.267Z,103170.16
2023-02-28T09:30:08.156Z,103169.69
2023-02-28T09:32:54.722Z,103171.09
2023-02-28T09:35:43.768Z,103182.50
2023-02-28T09:38:30.543Z,103181.34
2023-02-28T09:41:18.967Z,103179.66
2023-02-28T09:44:09.119Z,103177.50
2023-02-28T09:47:00.262Z,103176.50
2023-02-28T09:49:48.908Z,103185.66
2023-02-28T09:52:36.695Z,103181.38
2023-02-28T09:55:35.319Z,103196.09
2023-02-28T09:58:33.864Z,103185.94
2023-02-28T10:01:28.466Z,103190.44
2023-02-28T10:04:27.177Z,103191.78
2023-02-28T10:07:24.599Z,103181.94
2023-02-28T10:10:23.411Z,103181.03
2023-02-28T10:13:18.740Z,103186.69
2023-02-28T10:16:10.449Z,103185.47
2023-02-28T10:19:06.261Z,103182.56
2023-02-28T10:21:58.958Z,103179.00
2023-02-28T10:24:47.369Z,103173.88
2023-02-28T10:27:35.989Z,103161.75
2023-02-28T10:30:22.510Z,103161.59
2023-02-28T10:33:21.137Z,103161.63
2023-02-28T10:36:08.521Z,103156.63
2023-02-28T10:38:55.710Z,103163.59
2023-02-28T10:41:45.424Z,103168.66
2023-02-28T10:44:33.439Z,103169.19
2023-02-28T10:47:21.645Z,103169.75
2023-02-28T10:50:28.278Z,103168.16
2023-02-28T10:53:30.236Z,103168.38
2023-02-28T10:56:22.047Z,103168.91
2023-02-28T10:59:30.319Z,103171.56
2023-02-28T11:02:37.608Z,103161.22
2023-02-28T11:05:32.725Z,103149.47
2023-02-28T11:08:20.406Z,103152.84
2023-02-28T11:11:08.224Z,103142.25
2023-02-28T11:13:56.388Z,103146.81
2023-02-28T11:16:42.668Z,103151.81
2023-02-28T11:19:39.374Z,103151.66
2023-02-28T11:22:29.780Z,103140.94
2023-02-28T11:25:23.797Z,103130.66
2023-02-28T11:28:27.402Z,103130.19
2023-02-28T11:31:20.483Z,103137.44
2023-02-28T11:34:26.796Z,103128.69
2023-02-28T11:37:17.774Z,103132.56
2023-02-28T11:40:14.774Z,103131.25
2023-02-28T11:43:11.337Z,103126.94
2023-02-28T11:46:08.926Z,103117.38
2023-02-28T11:49:05.142Z,103114.75
2023-02-28T11:51:59.442Z,103118.81
2023-02-28T11:55:03.966Z,103108.72
2023-02-28T11:58:12.630Z,103111.47
2023-02-28T12:01:17.538Z,103100.16
2023-02-28T12:04:17.793Z,103101.44
2023-02-28T12:07:15.280Z,103091.75
2023-02-28T12:10:11.360Z,103096.38
2023-02-28T12:13:15.646Z,103088.34
2023-02-28T12:16:20.995Z,103090.84
2023-02-28T12:19:21.039Z,103090.56
2023-02-28T12:22:29.828Z,103094.63
2023-02-28T12:25:44.506Z,103089.75
2023-02-28T12:28:36.498Z,103091.97
2023-02-28T12:31:25.998Z,103087.03
2023-02-28T12:34:17.521Z,103090.84
2023-02-28T12:37:08.546Z,103076.63
2023-02-28T12:40:02.310Z,103078.59
2023-02-28T12:42:53.898Z,103080.56
2023-02-28T12:45:44.232Z,103075.84
2023-02-28T12:48:39.419Z,103066.13
2023-02-28T12:51:28.147Z,103071.13
2023-02-28T12:54:25.552Z,103069.75
2023-02-28T12:57:17.430Z,103063.56
2023-02-28T13:00:13.050Z,103057.97
2023-02-28T13:03:22.866Z,103051.78
2023-02-28T13:06:43.039Z,103056.69
2023-02-28T13:09:30.567Z,103048.00
2023-02-28T13:12:18.555Z,103046.25
2023-02-28T13:15:22.243Z,103046.88
2023-02-28T13:18:33.064Z,103036.31
2023-02-28T13:21:26.178Z,103041.81
2023-02-28T13:24:33.727Z,103050.94
2023-02-28T13:27:26.592Z,103026.25
2023-02-28T13:30:50.355Z,103034.09
2023-02-28T13:33:45.228Z,103033.72
2023-02-28T13:36:33.064Z,103033.31
2023-02-28T13:39:47.775Z,103025.06
2023-02-28T13:42:38.154Z,103030.25
2023-02-28T13:45:30.954Z,103023.97
2023-02-28T13:48:21.173Z,103021.94
2023-02-28T13:51:44.272Z,103025.25
2023-02-28T13:54:43.111Z,103028.84
2023-02-28T13:57:41.636Z,103020.19
2023-02-28T14:00:46.070Z,103014.00
2023-02-28T14:03:56.391Z,103013.41
2023-02-28T14:06:50.490Z,103009.50
2023-02-28T14:09:40.450Z,103001.69
2023-02-28T14:12:58.665Z,102998.94
2023-02-28T14:15:58.725Z,103004.66
2023-02-28T14:18:51.764Z,102999.47
2023-02-28T14:21:45.942Z,102990.78
2023-02-28T14:24:53.580Z,102987.53
2023-02-28T14:27:50.008Z,103000.44
2023-02-28T14:31:12.561Z,103000.53
2023-02-28T14:34:37.474Z,103000.81
2023-02-28T14:37:31.055Z,103001.25
2023-02-28T14:40:22.265Z,103002.63
2023-02-28T14:43:22.430Z,103006.84
2023-02-28T14:46:08.928Z,102997.53
2023-02-28T14:48:55.469Z,102995.03
2023-02-28T14:51:41.784Z,102993.38
2023-02-28T14:54:28.270Z,102990.34
2023-02-28T14:57:25.706Z,102991.00
2023-02-28T15:00:18.009Z,102992.22
2023-02-28T15:03:22.025Z,102994.72
2023-02-28T15:06:15.382Z,102992.97
2023-02-28T15:09:17.940Z,102990.56
2023-02-28T15:12:04.519Z,102996.09
2023-02-28T15:14:52.609Z,102992.22
2023-02-28T15:17:38.971Z,102993.88
2023-02-28T15:20:26.742Z,102994.69
2023-02-28T15:23:13.842Z,102995.00
2023-02-28T15:26:01.561Z,102995.69
2023-02-28T15:28:48.182Z,102994.59
2023-02-28T15:31:55.991Z,103001.84
2023-02-28T15:34:45.161Z,102996.03
2023-02-28T15:37:41.480Z,102998.00
2023-02-28T15:40:30.654Z,102998.59
2023-02-28T15:43:18.947Z,103007.78
2023-02-28T15:46:08.356Z,103000.41
2023-02-28T15:48:58.367Z,102999.19
2023-02-28T15:51:45.309Z,103004.16
2023-02-28T15:54:35.784Z,102996.84
2023-02-28T15:57:25.909Z,102995.63
2023-02-28T16:00:15.059Z,102983.81
2023-02-28T16:03:01.820Z,102984.53
2023-02-28T16:06:22.281Z,102983.41
2023-02-28T16:09:12.032Z,102978.88
2023-02-28T16:12:02.241Z,102984.84
2023-02-28T16:14:49.460Z,102983.78
2023-02-28T16:17:39.687Z,102985.53
2023-02-28T16:20:28.736Z,102974.19
2023-02-28T16:23:16.333Z,102983.63
2023-02-28T16:26:02.981Z,102980.19
2023-02-28T16:28:49.498Z,102984.00
2023-02-28T16:31:39.609Z,102988.28
2023-02-28T16:34:26.260Z,102983.25
2023-02-28T16:37:15.516Z,102992.81
2023-02-28T16:40:03.678Z,102991.66
2023-02-28T16:42:53.082Z,102992.91
2023-02-28T16:45:39.581Z,103001.47
2023-02-28T16:48:27.039Z,103003.97
2023-02-28T16:51:14.567Z,103000.53
2023-02-28T16:54:01.037Z,103000.38
2023-02-28T16:56:50.485Z,103001.13
2023-02-28T16:59:37.093Z,103001.31
2023-02-28T17:02:23.703Z,103012.59
2023-02-28T17:05:13.232Z,103010.97
2023-02-28T17:08:00.137Z,103006.72
2023-02-28T17:10:46.921Z,103015.09
2023-02-28T17:13:35.412Z,103017.97
2023-02-28T17:16:27.467Z,103022.81
2023-02-28T17:19:15.846Z,103016.22
2023-02-28T17:22:02.042Z,103031.25
2023-02-28T17:24:48.769Z,103023.06
2023-02-28T17:27:34.872Z,103033.88
2023-02-28T17:30:25.002Z,103031.25
2023-02-28T17:33:11.461Z,103035.06
2023-02-28T17:35:57.781Z,103039.28
2023-02-28T17:38:44.147Z,103042.44
2023-02-28T17:41:31.336Z,103052.56
2023-02-28T17:44:17.550Z,103049.97
2023-02-28T17:47:05.897Z,103055.81
2023-02-28T17:49:52.382Z,103055.66
2023-02-28T17:52:38.987Z,103067.84
2023-02-28T17:55:25.433Z,103062.03
2023-02-28T17:58:13.624Z,103063.50
2023-02-28T18:01:00.396Z,103067.06
2023-02-28T18:03:48.189Z,103066.38
2023-02-28T18:06:46.895Z,103072.44
2023-02-28T18:09:33.345Z,103076.00
2023-02-28T18:12:20.013Z,103079.03
2023-02-28T18:15:07.798Z,103067.00
2023-02-28T18:17:53.939Z,103073.25
2023-02-28T18:20:41.891Z,103065.78
2023-02-28T18:23:28.479Z,103070.91
2023-02-28T18:26:15.349Z,103072.56
2023-02-28T18:29:01.961Z,103075.22
2023-02-28T18:31:48.897Z,103073.28
2023-02-28T18:34:35.282Z,103069.03
2023-02-28T18:37:24.729Z,103072.06
2023-02-28T18:40:12.436Z,103069.03
2023-02-28T18:42:58.801Z,103072.72
2023-02-28T18:45:45.471Z,103072.69
2023-02-28T18:48:31.976Z,103079.56
2023-02-28T18:51:21.612Z,103076.31
2023-02-28T18:54:09.962Z,103084.38
2023-02-28T18:56:56.531Z,103077.97
2023-02-28T18:59:42.947Z,103084.81
2023-02-28T19:02:29.394Z,103077.66
2023-02-28T19:05:16.080Z,103092.66
2023-02-28T19:08:02.607Z,103092.22
2023-02-28T19:10:50.566Z,103082.47
2023-02-28T19:13:37.470Z,103087.16
2023-02-28T19:16:25.432Z,103083.97
2023-02-28T19:19:11.897Z,103082.97
2023-02-28T19:21:58.417Z,103084.00
2023-02-28T19:24:44.818Z,103093.69
2023-02-28T19:27:32.712Z,103091.31
2023-02-28T19:30:19.267Z,103092.44
2023-02-28T19:33:05.761Z,103088.22
2023-02-28T19:35:52.178Z,103083.59
2023-02-28T19:38:38.768Z,103093.31
2023-02-28T19:41:25.258Z,103104.81
2023-02-28T19:44:13.003Z,103099.41
2023-02-28T19:46:59.299Z,103103.66
2023-02-28T19:49:46.282Z,103102.09
2023-02-28T19:52:32.413Z,103103.69
2023-02-28T19:55:19.512Z,103099.91
2023-02-28T19:58:06.161Z,103093.44
2023-02-28T20:00:54.082Z,103100.91
2023-02-28T20:03:41.201Z,103100.47
2023-02-28T20:06:27.256Z,103102.59
2023-02-28T20:09:13.622Z,103107.97
2023-02-28T20:12:00.584Z,103109.28
2023-02-28T20:14:47.379Z,103104.38
2023-02-28T20:17:35.031Z,103108.72
2023-02-28T20:20:21.509Z,103114.19
2023-02-28T20:23:08.020Z,103113.47
2023-02-28T20:25:54.625Z,103110.03
2023-02-28T20:28:41.112Z,103112.59
2023-02-28T20:31:28.593Z,103109.09
2023-02-28T20:34:17.693Z,103112.28
2023-02-28T20:37:04.223Z,103108.50
2023-02-28T20:39:52.909Z,103108.25
2023-02-28T20:42:39.356Z,103106.22
2023-02-28T20:45:25.717Z,103109.50
2023-02-28T20:48:12.313Z,103107.81
2023-02-28T20:51:00.958Z,103107.53
2023-02-28T20:53:47.659Z,103110.03
2023-02-28T20:56:34.327Z,103110.34
2023-02-28T20:59:22.238Z,103109.00
2023-02-28T21:02:10.587Z,103121.13
2023-02-28T21:04:57.046Z,103110.97
2023-02-28T21:07:44.821Z,103114.72
2023-02-28T21:10:32.209Z,103112.31
2023-02-28T21:13:18.369Z,103121.06
2023-02-28T21:16:06.237Z,103128.34
2023-02-28T21:18:53.929Z,103135.16
2023-02-28T21:21:43.782Z,103132.06
2023-02-28T21:24:31.212Z,103142.03
2023-02-28T21:27:17.642Z,103126.69
2023-02-28T21:30:05.628Z,103135.63
2023-02-28T21:32:52.161Z,103135.56
2023-02-28T21:35:38.488Z,103127.75
2023-02-28T21:38:24.737Z,103129.00
2023-02-28T21:41:15.490Z,103126.00
2023-02-28T21:44:01.930Z,103123.81
2023-02-28T21:46:49.377Z,103121.22
2023-02-28T21:49:37.537Z,103122.22
2023-02-28T21:52:23.942Z,103129.09
2023-02-28T21:55:10.492Z,103125.16
2023-02-28T21:57:58.118Z,103125.06
2023-02-28T22:00:45.973Z,103119.56
2023-02-28T22:03:32.133Z,103115.25
2023-02-28T22:06:21.415Z,103114.78
2023-02-28T22:09:09.880Z,103114.91
2023-02-28T22:11:56.135Z,103118.94
2023-02-28T22:14:45.255Z,103117.97
2023-02-28T22:17:31.809Z,103123.66
2023-02-28T22:20:18.100Z,103118.38
2023-02-28T22:23:04.715Z,103132.56
2023-02-28T22:25:50.717Z,103132.88
2023-02-28T22:28:38.036Z,103129.69
2023-02-28T22:31:27.928Z,103133.41
2023-02-28T22:34:14.712Z,103137.97
2023-02-28T22:37:01.110Z,103132.22
2023-02-28T22:39:47.444Z,103136.25
2023-02-28T22:42:35.086Z,103139.19
2023-02-28T22:45:21.144Z,103140.59
2023-02-28T22:48:10.973Z,103142.19
2023-02-28T22:51:02.753Z,103142.97
2023-02-28T22:53:50.593Z,103135.91
2023-02-28T22:56:37.226Z,103134.84
2023-02-28T22:59:23.549Z,103132.19
2023-02-28T23:02:09.996Z,103130.88
2023-02-28T23:04:57.505Z,103128.50
2023-02-28T23:07:44.113Z,103129.19
2023-02-28T23:10:30.679Z,103117.03
2023-02-28T23:13:17.023Z,103129.94
2023-02-28T23:16:06.019Z,103119.44
2023-02-28T23:18:52.653Z,103121.53
2023-02-28T23:21:41.477Z,103131.56
2023-02-28T23:24:30.105Z,103130.03
2023-02-28T23:27:16.331Z,103127.78
2023-02-28T23:30:03.046Z,103139.63
2023-02-28T23:32:49.467Z,103134.53
2023-02-28T23:35:36.234Z,103139.00
2023-02-28T23:38:24.210Z,103143.66
2023-02-28T23:41:11.390Z,103130.88
2023-02-28T23:43:57.945Z,103137.81
2023-02-28T23:46:45.252Z,103142.59
2023-02-28T23:49:31.417Z,103147.31
2023-02-28T23:52:17.704Z,103141.34
2023-02-28T23:55:06.004Z,103139.53
2023-02-28T23:57:52.733Z,103131.00
